Roundhill, KY

8:54 PM CDT on May 29, 2015 (GMT -0500)
Brownsville 7mi WNW | | Change Station
CLOSE
Current Station
Personal Weather Station
Location: Huff, KY
Elevation: 581 ft
Nearby Weather Stations

Elev 581 ft 37.24 °N, 86.37 °W | Updated 5 seconds ago

Mostly Cloudy
Mostly Cloudy
73.9 °F
Feels Like 73 °F
N
2.7
Wind Variable Wind from SE
Gusts 4.9 mph

Today
High -- | Low -- °F
--% Chance of Precip.
Yesterday
High -- | Low -- °F
Precip. -- in
5:28 AM 7:58 PM
Waxing Gibbous, 87% visible
Pressure 30.06 in
Visibility 10.0 miles
Clouds Scattered Clouds 4400 ft
Mostly Cloudy 7500 ft
Overcast 10000 ft
Heat Index 73 °F
Dew Point 70 °F
Humidity 87%
Rainfall 0.00 in
Snow Depth Not available.
UV 0.0 out of 12
Pollen 1.70 out of 12
Air Quality Not available.
Flu Activity No Activity
METAR KBWG 300053Z AUTO 16008KT 10SM SCT044 BKN075 OVC100 24/20 A3007 RMK AO2 LTG DSNT E AND SE SLP177 T02440200

More Conditions Fewer Conditions

Pressure 30.06 in
Visibility 10.0 miles
Clouds Scattered Clouds 4400 ft
Mostly Cloudy 7500 ft
Overcast 10000 ft
Heat Index 73 °F
Dew Point 70 °F
Humidity 87%
Rainfall 0.00 in
Snow Depth Not available.
UV 0.0 out of 12
Pollen 1.70 out of 12
Air Quality Not available.
Flu Activity No Activity
METAR KBWG 300053Z AUTO 16008KT 10SM SCT044 BKN075 OVC100 24/20 A3007 RMK AO2 LTG DSNT E AND SE SLP177 T02440200

More Conditions Fewer Conditions

10-Day Weather Forecast

Almanac

Astronomy

May. 29, 2015 Rise Set
Actual Time
Civil Twilight
Nautical Twilight
Astronomical Twilight
Moon
Length of Visible Light
Length of Day
Tomorrow will be .
, % of the Moon is Illuminated

Today's Extremes

State Highs State Lows

Community

WunderPhotos

Upload Photos

1,825,415 photos uploaded!

WunderBlogs® & News

Nearby

Air Quality

  Air Quality AQ Index Pollutant
Not available.

Snow Depth

Station Depth Elevation

Earthquake Activity

City Distance Mag. Time & Date
Minimum magnitude displayed is 2.5.

Coastal Water Temperatures

Place Temperature

Stations

Nearby Weather Stations

Station Location Temp. Windchill Dew Point Humidity Wind Precip. Elev Updated Type